createdAt,value
2023-05-10T00:00:36.569Z,34.01
2023-05-10T00:01:36.694Z,34.07
2023-05-10T00:02:36.806Z,34.07
2023-05-10T00:03:36.792Z,34.11
2023-05-10T00:04:36.693Z,34.14
2023-05-10T00:05:36.737Z,34.15
2023-05-10T00:06:36.792Z,34.22
2023-05-10T00:07:36.822Z,34.20
2023-05-10T00:08:36.851Z,34.25
2023-05-10T00:09:36.867Z,34.23
2023-05-10T00:10:36.922Z,34.27
2023-05-10T00:11:36.968Z,34.35
2023-05-10T00:12:36.955Z,34.30
2023-05-10T00:13:37.750Z,34.39
2023-05-10T00:14:37.149Z,34.41
2023-05-10T00:15:37.097Z,34.47
2023-05-10T00:16:37.134Z,34.47
2023-05-10T00:17:37.160Z,34.46
2023-05-10T00:18:37.202Z,34.50
2023-05-10T00:19:37.210Z,34.48
2023-05-10T00:20:37.254Z,34.54
2023-05-10T00:21:37.298Z,34.58
2023-05-10T00:22:37.326Z,34.62
2023-05-10T00:23:37.374Z,34.61
2023-05-10T00:24:37.413Z,34.62
2023-05-10T00:25:37.458Z,34.65
2023-05-10T00:26:37.461Z,34.66
2023-05-10T00:27:37.528Z,34.73
2023-05-10T00:28:37.547Z,34.73
2023-05-10T00:29:37.592Z,34.74
2023-05-10T00:30:37.594Z,34.79
2023-05-10T00:31:37.709Z,34.73
2023-05-10T00:32:37.718Z,34.74
2023-05-10T00:33:37.611Z,34.82
2023-05-10T00:34:37.623Z,34.81
2023-05-10T00:35:37.677Z,34.83
2023-05-10T00:36:37.682Z,34.81
2023-05-10T00:37:37.733Z,34.86
2023-05-10T00:38:37.767Z,34.89
2023-05-10T00:39:37.785Z,34.87
2023-05-10T00:40:37.849Z,34.89
2023-05-10T00:41:37.897Z,34.91
2023-05-10T00:42:37.914Z,34.89
2023-05-10T00:43:37.972Z,34.91
2023-05-10T00:44:37.983Z,34.95
2023-05-10T00:45:37.998Z,34.91
2023-05-10T00:46:38.077Z,34.97
2023-05-10T00:47:38.121Z,34.95
2023-05-10T00:48:38.087Z,34.94
2023-05-10T00:49:38.163Z,34.99
2023-05-10T00:50:38.147Z,35.03
2023-05-10T00:51:38.168Z,35.05
2023-05-10T00:52:38.219Z,34.98
2023-05-10T00:53:38.230Z,35.05
2023-05-10T00:54:38.309Z,35.03
2023-05-10T00:55:38.340Z,35.05
2023-05-10T00:56:38.364Z,35.12
2023-05-10T00:57:38.401Z,35.12
2023-05-10T00:58:38.414Z,35.14
2023-05-10T00:59:38.475Z,35.12
2023-05-10T01:00:38.481Z,35.09
2023-05-10T01:01:38.559Z,35.10
2023-05-10T01:02:38.669Z,35.12
2023-05-10T01:03:38.628Z,35.16
2023-05-10T01:04:38.649Z,35.21
2023-05-10T01:05:38.664Z,35.16
2023-05-10T01:06:38.676Z,35.21
2023-05-10T01:07:38.774Z,35.26
2023-05-10T01:08:38.787Z,35.26
2023-05-10T01:09:38.849Z,35.25
2023-05-10T01:10:38.828Z,35.22
2023-05-10T01:11:38.822Z,35.25
2023-05-10T01:12:38.906Z,35.30
2023-05-10T01:13:38.886Z,35.32
2023-05-10T01:14:38.929Z,35.34
2023-05-10T01:15:38.980Z,35.30
2023-05-10T01:16:38.993Z,35.32
2023-05-10T01:17:39.038Z,35.35
2023-05-10T01:18:39.069Z,35.35
2023-05-10T01:19:39.097Z,35.40
2023-05-10T01:20:39.154Z,35.37
2023-05-10T01:21:39.134Z,35.43
2023-05-10T01:22:39.163Z,35.44
2023-05-10T01:23:39.212Z,35.40
2023-05-10T01:24:39.234Z,35.41
2023-05-10T01:25:39.277Z,35.48
2023-05-10T01:26:39.294Z,35.46
2023-05-10T01:27:39.375Z,35.45
2023-05-10T01:28:39.369Z,35.48
2023-05-10T01:29:39.423Z,35.48
2023-05-10T01:30:39.467Z,35.51
2023-05-10T01:31:39.501Z,35.45
2023-05-10T01:32:39.546Z,35.53
2023-05-10T01:33:39.557Z,35.49
2023-05-10T01:34:39.589Z,35.62
2023-05-10T01:35:39.627Z,35.57
2023-05-10T01:36:39.650Z,35.58
2023-05-10T01:37:39.701Z,35.58
2023-05-10T01:38:39.691Z,35.60
2023-05-10T01:39:39.782Z,35.62
2023-05-10T01:40:39.751Z,35.62
2023-05-10T01:41:39.799Z,35.66
2023-05-10T01:42:39.859Z,35.58
2023-05-10T01:43:39.856Z,35.61
2023-05-10T01:44:39.908Z,35.67
2023-05-10T01:45:39.937Z,35.63
2023-05-10T01:46:39.995Z,35.65
2023-05-10T01:47:40.060Z,35.64
2023-05-10T01:48:40.033Z,35.65
2023-05-10T01:49:40.055Z,35.69
2023-05-10T01:50:40.135Z,35.69
2023-05-10T01:51:40.159Z,35.68
2023-05-10T01:52:40.209Z,35.72
2023-05-10T01:53:40.236Z,35.71
2023-05-10T01:54:40.252Z,35.77
2023-05-10T01:55:40.291Z,35.71
2023-05-10T01:56:40.328Z,35.74
2023-05-10T01:57:40.351Z,35.78
2023-05-10T01:58:40.371Z,35.73
2023-05-10T01:59:40.411Z,35.76
2023-05-10T02:00:40.459Z,35.76
2023-05-10T02:01:40.454Z,35.76
2023-05-10T02:02:40.509Z,35.80
2023-05-10T02:03:40.603Z,35.79
2023-05-10T02:04:40.567Z,35.81
2023-05-10T02:05:40.586Z,35.78
2023-05-10T02:06:40.613Z,35.84
2023-05-10T02:07:40.636Z,35.80
2023-05-10T02:08:40.649Z,35.85
2023-05-10T02:09:40.684Z,35.87
2023-05-10T02:10:40.699Z,35.82
2023-05-10T02:11:40.763Z,35.87
2023-05-10T02:12:40.809Z,35.85
2023-05-10T02:13:40.825Z,35.85
2023-05-10T02:14:40.843Z,35.92
2023-05-10T02:15:40.869Z,35.87
2023-05-10T02:16:40.938Z,35.93
2023-05-10T02:17:40.999Z,35.92
2023-05-10T02:18:40.952Z,35.93
2023-05-10T02:19:40.959Z,35.95
2023-05-10T02:20:41.031Z,35.93
2023-05-10T02:21:41.033Z,36.00
2023-05-10T02:22:41.051Z,36.00
2023-05-10T02:23:41.093Z,35.96
2023-05-10T02:24:41.136Z,35.93
2023-05-10T02:25:41.170Z,35.97
2023-05-10T02:26:41.226Z,36.00
2023-05-10T02:27:41.246Z,35.99
2023-05-10T02:28:41.269Z,36.01
2023-05-10T02:29:41.291Z,36.04
2023-05-10T02:30:41.319Z,36.05
2023-05-10T02:31:41.375Z,36.04
2023-05-10T02:32:41.418Z,36.03
2023-05-10T02:33:41.408Z,36.00
2023-05-10T02:34:41.429Z,36.04
2023-05-10T02:35:41.497Z,35.99
2023-05-10T02:36:41.500Z,35.97
2023-05-10T02:37:41.535Z,36.04
2023-05-10T02:38:41.548Z,36.04
2023-05-10T02:39:41.622Z,36.04
2023-05-10T02:40:41.625Z,36.03
2023-05-10T02:41:41.676Z,36.00
2023-05-10T02:42:41.671Z,36.00
2023-05-10T02:43:42.308Z,35.99
2023-05-10T02:44:41.743Z,36.07
2023-05-10T02:45:41.863Z,36.03
2023-05-10T02:46:41.759Z,36.01
2023-05-10T02:47:41.840Z,36.05
2023-05-10T02:48:41.831Z,36.09
2023-05-10T02:49:41.863Z,36.01
2023-05-10T02:50:41.913Z,36.03
2023-05-10T02:51:41.947Z,36.04
2023-05-10T02:52:42.017Z,36.07
2023-05-10T02:53:42.006Z,36.05
2023-05-10T02:54:42.039Z,36.07
2023-05-10T02:55:42.079Z,36.12
2023-05-10T02:56:42.092Z,36.07
2023-05-10T02:57:42.147Z,36.07
2023-05-10T02:58:42.160Z,36.07
2023-05-10T02:59:42.178Z,36.07
2023-05-10T03:00:42.202Z,36.07
2023-05-10T03:01:42.237Z,36.05
2023-05-10T03:02:42.293Z,36.07
2023-05-10T03:03:42.308Z,36.07
2023-05-10T03:04:42.339Z,36.09
2023-05-10T03:05:42.344Z,36.08
2023-05-10T03:06:42.365Z,36.11
2023-05-10T03:07:42.376Z,36.07
2023-05-10T03:08:42.402Z,36.11
2023-05-10T03:09:42.434Z,36.17
2023-05-10T03:10:42.446Z,36.11
2023-05-10T03:11:42.484Z,36.12
2023-05-10T03:12:42.556Z,36.13
2023-05-10T03:13:42.536Z,36.19
2023-05-10T03:14:42.540Z,36.16
2023-05-10T03:15:42.640Z,36.14
2023-05-10T03:16:44.746Z,36.19
2023-05-10T03:17:42.664Z,36.14
2023-05-10T03:18:42.662Z,36.15
2023-05-10T03:19:42.675Z,36.20
2023-05-10T03:20:42.716Z,36.20
2023-05-10T03:21:42.769Z,36.20
2023-05-10T03:22:42.784Z,36.21
2023-05-10T03:23:42.843Z,36.19
2023-05-10T03:24:42.865Z,36.17
2023-05-10T03:25:42.868Z,36.19
2023-05-10T03:26:42.909Z,36.21
2023-05-10T03:27:42.941Z,36.17
2023-05-10T03:28:42.958Z,36.23
2023-05-10T03:29:42.981Z,36.25
2023-05-10T03:30:43.000Z,36.24
2023-05-10T03:31:43.172Z,36.23
2023-05-10T03:32:43.205Z,36.23
2023-05-10T03:33:43.089Z,36.25
2023-05-10T03:34:43.119Z,36.20
2023-05-10T03:35:43.132Z,36.27
2023-05-10T03:36:43.159Z,36.28
2023-05-10T03:37:43.213Z,36.25
2023-05-10T03:38:43.216Z,36.28
2023-05-10T03:39:43.227Z,36.29
2023-05-10T03:40:43.268Z,36.27
2023-05-10T03:41:43.308Z,36.27
2023-05-10T03:42:43.325Z,36.27
2023-05-10T03:43:43.398Z,36.25
2023-05-10T03:44:43.347Z,36.29
2023-05-10T03:45:43.393Z,36.27
2023-05-10T03:46:43.458Z,36.31
2023-05-10T03:47:43.497Z,36.29
2023-05-10T03:48:43.471Z,36.31
2023-05-10T03:49:43.488Z,36.35
2023-05-10T03:50:43.484Z,36.24
2023-05-10T03:51:43.566Z,36.27
2023-05-10T03:52:43.602Z,36.32
2023-05-10T03:53:43.611Z,36.32
2023-05-10T03:54:43.630Z,36.33
2023-05-10T03:55:43.620Z,36.24
2023-05-10T03:56:43.685Z,36.33
2023-05-10T03:57:43.687Z,36.32
2023-05-10T03:58:43.749Z,36.31
2023-05-10T03:59:43.770Z,36.31
2023-05-10T04:00:43.778Z,36.23
2023-05-10T04:01:43.887Z,36.28
2023-05-10T04:02:44.635Z,36.32
2023-05-10T04:03:43.964Z,36.29
2023-05-10T04:04:43.900Z,36.32
2023-05-10T04:05:43.902Z,36.27
2023-05-10T04:06:44.010Z,36.28
2023-05-10T04:07:43.973Z,36.25
2023-05-10T04:08:44.028Z,36.32
2023-05-10T04:09:44.048Z,36.25
2023-05-10T04:10:44.061Z,36.25
2023-05-10T04:11:44.102Z,36.29
2023-05-10T04:12:44.142Z,36.24
2023-05-10T04:13:44.177Z,36.23
2023-05-10T04:14:44.170Z,36.20
2023-05-10T04:15:44.179Z,36.24
2023-05-10T04:16:44.293Z,36.23
2023-05-10T04:17:44.309Z,36.24
2023-05-10T04:18:44.286Z,36.19
2023-05-10T04:19:44.311Z,36.24
2023-05-10T04:20:44.323Z,36.21
2023-05-10T04:21:44.368Z,36.24
2023-05-10T04:22:44.407Z,36.27
2023-05-10T04:23:44.424Z,36.20
2023-05-10T04:24:44.429Z,36.24
2023-05-10T04:25:44.485Z,36.27
2023-05-10T04:26:44.536Z,36.23
2023-05-10T04:27:44.538Z,36.21
2023-05-10T04:28:44.594Z,36.19
2023-05-10T04:29:44.590Z,36.20
2023-05-10T04:30:44.681Z,36.19
2023-05-10T04:31:44.649Z,36.24
2023-05-10T04:32:44.704Z,36.24
2023-05-10T04:33:44.679Z,36.23
2023-05-10T04:34:44.724Z,36.24
2023-05-10T04:35:44.775Z,36.23
2023-05-10T04:36:44.788Z,36.24
2023-05-10T04:37:44.792Z,36.23
2023-05-10T04:38:44.830Z,36.23
2023-05-10T04:39:44.884Z,36.23
2023-05-10T04:40:44.895Z,36.20
2023-05-10T04:41:44.908Z,36.24
2023-05-10T04:42:44.984Z,36.20
2023-05-10T04:43:44.994Z,36.17
2023-05-10T04:44:45.013Z,36.20
2023-05-10T04:45:45.023Z,36.21
2023-05-10T04:46:45.090Z,36.20
2023-05-10T04:47:45.099Z,36.16
2023-05-10T04:48:45.115Z,36.16
2023-05-10T04:49:45.143Z,36.15
2023-05-10T04:50:45.170Z,36.20
2023-05-10T04:51:45.197Z,36.20
2023-05-10T04:52:45.234Z,36.23
2023-05-10T04:53:54.167Z,36.15
2023-05-10T04:54:46.240Z,36.24
2023-05-10T04:55:45.219Z,36.17
2023-05-10T04:56:45.237Z,36.23
2023-05-10T04:57:45.888Z,36.20
2023-05-10T04:58:45.188Z,36.21
2023-05-10T04:59:45.230Z,36.21
2023-05-10T05:00:52.752Z,36.19
2023-05-10T05:01:45.232Z,36.15
2023-05-10T05:02:45.343Z,36.17
2023-05-10T05:03:45.311Z,36.15
2023-05-10T05:04:45.197Z,36.19
2023-05-10T05:05:45.146Z,36.19
2023-05-10T05:06:45.181Z,36.17
2023-05-10T05:07:45.131Z,36.17
2023-05-10T05:08:45.166Z,36.21
2023-05-10T05:09:45.149Z,36.13
2023-05-10T05:10:45.132Z,36.13
2023-05-10T05:11:45.123Z,36.11
2023-05-10T05:12:45.172Z,36.12
2023-05-10T05:13:45.144Z,36.12
2023-05-10T05:14:45.092Z,36.05
2023-05-10T05:15:45.091Z,36.05
2023-05-10T05:16:45.194Z,36.12
2023-05-10T05:17:45.154Z,36.05
2023-05-10T05:18:45.106Z,36.05
2023-05-10T05:19:45.084Z,35.99
2023-05-10T05:20:45.105Z,36.04
2023-05-10T05:21:45.074Z,36.20
2023-05-10T05:22:45.073Z,36.38
2023-05-10T05:23:45.049Z,36.52
2023-05-10T05:24:45.032Z,36.74
2023-05-10T05:26:50.799Z,37.14
2023-05-10T05:27:50.768Z,37.18
2023-05-10T05:28:50.808Z,37.34
2023-05-10T05:29:50.776Z,37.57
2023-05-10T05:30:50.782Z,37.78
2023-05-10T05:31:51.046Z,38.26
2023-05-10T05:32:50.800Z,38.43
2023-05-10T05:33:50.982Z,38.58
2023-05-10T05:34:50.738Z,39.01
2023-05-10T05:35:50.732Z,38.98
2023-05-10T05:36:50.740Z,39.10
2023-05-10T05:37:50.728Z,39.23
2023-05-10T05:38:50.973Z,39.32
2023-05-10T05:39:50.716Z,39.55
2023-05-10T05:40:50.696Z,40.17
2023-05-10T05:41:50.724Z,39.84
2023-05-10T05:42:50.703Z,41.09
2023-05-10T05:43:50.964Z,41.25
2023-05-10T05:44:50.677Z,40.93
2023-05-10T05:45:57.712Z,42.00
2023-05-10T05:46:50.692Z,41.39
2023-05-10T05:47:50.721Z,41.60
2023-05-10T05:48:51.004Z,42.48
2023-05-10T05:49:50.637Z,42.22
2023-05-10T05:50:50.653Z,42.24
2023-05-10T05:51:50.655Z,41.69
2023-05-10T05:52:50.640Z,41.98
2023-05-10T05:53:50.973Z,41.86
2023-05-10T05:54:50.665Z,41.69
2023-05-10T05:55:50.598Z,41.80
2023-05-10T05:56:50.597Z,41.19
2023-05-10T05:57:50.557Z,41.33
2023-05-10T05:58:50.599Z,41.27
2023-05-10T05:59:50.599Z,41.05
2023-05-10T06:00:50.593Z,40.77
2023-05-10T06:01:50.585Z,39.90
2023-05-10T06:02:50.619Z,39.61
2023-05-10T06:03:53.168Z,39.40
2023-05-10T06:04:50.987Z,40.00
2023-05-10T06:05:50.545Z,39.51
2023-05-10T06:06:50.547Z,39.93
2023-05-10T06:07:50.558Z,40.57
2023-05-10T06:08:50.510Z,40.18
2023-05-10T06:09:50.524Z,40.31
2023-05-10T06:10:50.535Z,39.96
2023-05-10T06:11:50.545Z,40.72
2023-05-10T06:12:50.539Z,40.41
2023-05-10T06:13:50.489Z,40.36
2023-05-10T06:14:50.507Z,39.79
2023-05-10T06:15:50.484Z,40.13
2023-05-10T06:16:50.507Z,40.19
2023-05-10T06:17:50.493Z,40.24
2023-05-10T06:18:50.458Z,40.34
2023-05-10T06:19:50.491Z,40.05
2023-05-10T06:20:50.445Z,39.81
2023-05-10T06:21:53.111Z,39.82
2023-05-10T06:22:50.476Z,40.00
2023-05-10T06:23:50.485Z,39.63
2023-05-10T06:24:50.439Z,39.86
2023-05-10T06:25:50.407Z,40.13
2023-05-10T06:26:50.403Z,39.67
2023-05-10T06:27:53.787Z,39.63
2023-05-10T06:28:50.393Z,40.12
2023-05-10T06:29:52.234Z,39.56
2023-05-10T06:30:51.386Z,40.38
2023-05-10T06:31:50.450Z,39.77
2023-05-10T06:32:50.401Z,39.40
2023-05-10T06:33:50.393Z,41.41
2023-05-10T06:34:50.333Z,41.09
2023-05-10T06:35:50.311Z,39.69
2023-05-10T06:36:50.357Z,39.87
2023-05-10T06:37:50.352Z,38.01
2023-05-10T06:38:50.337Z,37.34
2023-05-10T06:39:50.383Z,36.33
2023-05-10T06:40:50.391Z,36.90
2023-05-10T06:41:50.343Z,38.01
2023-05-10T06:42:50.354Z,39.02
2023-05-10T06:43:50.484Z,38.26
2023-05-10T06:44:50.371Z,38.46
2023-05-10T06:45:50.353Z,38.23
2023-05-10T06:46:50.587Z,38.26
2023-05-10T06:47:50.462Z,38.35
2023-05-10T06:48:50.509Z,38.41
2023-05-10T06:49:51.025Z,38.78
2023-05-10T06:50:50.630Z,38.84
2023-05-10T06:51:50.714Z,39.41
2023-05-10T06:52:52.376Z,39.18
2023-05-10T06:53:50.796Z,42.20
2023-05-10T06:54:50.875Z,39.46
2023-05-10T06:55:50.853Z,38.84
2023-05-10T06:56:50.899Z,38.97
2023-05-10T06:57:50.925Z,38.55
2023-05-10T06:58:50.988Z,38.98
2023-05-10T06:59:50.950Z,38.52
2023-05-10T07:00:50.974Z,38.51
2023-05-10T07:01:51.010Z,38.96
2023-05-10T07:02:51.044Z,38.48
2023-05-10T07:03:51.103Z,38.61
2023-05-10T07:04:51.271Z,39.23
2023-05-10T07:05:51.190Z,38.78
2023-05-10T07:06:51.217Z,39.09
2023-05-10T07:07:51.215Z,38.50
2023-05-10T07:08:51.222Z,39.03
2023-05-10T07:09:51.195Z,38.75
2023-05-10T07:10:51.225Z,38.90
2023-05-10T07:11:51.327Z,38.49
2023-05-10T07:12:51.483Z,38.17
2023-05-10T07:13:51.525Z,37.96
2023-05-10T07:14:52.048Z,37.30
2023-05-10T07:15:51.637Z,36.63
2023-05-10T07:16:51.638Z,36.46
2023-05-10T07:17:51.682Z,36.58
2023-05-10T07:18:51.640Z,36.96
2023-05-10T07:19:51.697Z,36.58
2023-05-10T07:20:51.730Z,36.40
2023-05-10T07:21:51.790Z,36.29
2023-05-10T07:22:51.794Z,36.10
2023-05-10T07:23:51.860Z,36.18
2023-05-10T07:24:51.831Z,36.27
2023-05-10T07:25:51.846Z,36.33
2023-05-10T07:26:51.823Z,36.60
2023-05-10T07:27:51.872Z,36.43
2023-05-10T07:28:51.872Z,36.52
2023-05-10T07:29:51.862Z,36.93
2023-05-10T07:30:51.917Z,37.03
2023-05-10T07:31:51.955Z,36.90
2023-05-10T07:32:51.952Z,37.74
2023-05-10T07:33:51.879Z,37.10
2023-05-10T07:34:51.892Z,37.06
2023-05-10T07:35:51.925Z,37.20
2023-05-10T07:36:51.908Z,37.57
2023-05-10T07:37:51.943Z,37.44
2023-05-10T07:38:51.940Z,37.36
2023-05-10T07:39:51.932Z,37.34
2023-05-10T07:40:51.954Z,37.30
2023-05-10T07:41:52.018Z,37.13
2023-05-10T07:42:51.967Z,36.99
2023-05-10T07:43:51.979Z,36.95
2023-05-10T07:44:52.056Z,37.19
2023-05-10T07:45:54.628Z,37.00
2023-05-10T07:46:52.056Z,36.98
2023-05-10T07:47:52.126Z,37.05
2023-05-10T07:48:52.063Z,36.92
2023-05-10T07:49:52.026Z,37.08
2023-05-10T07:50:52.004Z,37.09
2023-05-10T07:51:52.037Z,37.11
2023-05-10T07:52:51.989Z,37.14
2023-05-10T07:53:52.014Z,37.13
2023-05-10T07:54:52.028Z,37.14
2023-05-10T07:55:52.029Z,37.13
2023-05-10T07:56:51.978Z,37.10
2023-05-10T07:58:21.861Z,37.12
2023-05-10T07:59:21.826Z,37.09
2023-05-10T08:00:21.885Z,37.04
2023-05-10T08:01:21.849Z,37.00
2023-05-10T08:02:21.897Z,36.90
2023-05-10T08:03:21.859Z,36.91
2023-05-10T08:04:21.810Z,36.92
2023-05-10T08:05:21.821Z,36.85
2023-05-10T08:06:21.828Z,36.83
2023-05-10T08:07:22.510Z,36.88
2023-05-10T08:08:21.800Z,36.80
2023-05-10T08:09:21.802Z,36.77
2023-05-10T08:10:21.855Z,36.79
2023-05-10T08:11:21.811Z,36.79
2023-05-10T08:12:21.749Z,36.71
2023-05-10T08:13:21.770Z,36.72
2023-05-10T08:14:21.725Z,36.70
2023-05-10T08:15:21.734Z,36.74
2023-05-10T08:16:21.756Z,36.69
2023-05-10T08:17:22.844Z,36.67
2023-05-10T08:18:22.216Z,36.68
2023-05-10T08:19:21.720Z,36.68
2023-05-10T08:20:21.821Z,36.65
2023-05-10T08:21:21.711Z,36.65
2023-05-10T08:22:21.706Z,36.65
2023-05-10T08:23:21.679Z,36.64
2023-05-10T08:24:21.655Z,36.64
2023-05-10T08:25:21.660Z,36.69
2023-05-10T08:26:21.699Z,36.63
2023-05-10T08:27:21.663Z,36.59
2023-05-10T08:28:21.625Z,36.55
2023-05-10T08:29:21.628Z,36.59
2023-05-10T08:30:22.065Z,36.59
2023-05-10T08:31:21.671Z,36.52
2023-05-10T08:32:21.598Z,36.59
2023-05-10T08:33:21.616Z,36.56
2023-05-10T08:34:21.733Z,36.56
2023-05-10T08:35:22.060Z,36.60
2023-05-10T08:36:21.603Z,36.56
2023-05-10T08:37:21.550Z,36.57
2023-05-10T08:38:21.604Z,36.60
2023-05-10T08:39:29.900Z,36.55
2023-05-10T08:40:22.550Z,36.61
2023-05-10T08:41:21.546Z,36.61
2023-05-10T08:42:21.560Z,36.58
2023-05-10T08:43:21.524Z,36.55
2023-05-10T08:44:21.558Z,36.58
2023-05-10T08:45:21.499Z,36.55
2023-05-10T08:46:21.595Z,36.52
2023-05-10T08:47:21.492Z,36.51
2023-05-10T08:48:21.500Z,36.56
2023-05-10T08:49:21.514Z,36.52
2023-05-10T08:50:21.578Z,36.44
2023-05-10T08:51:21.466Z,36.49
2023-05-10T08:52:21.485Z,36.46
2023-05-10T08:53:21.524Z,36.46
2023-05-10T08:54:21.636Z,36.40
2023-05-10T08:55:21.587Z,36.36
2023-05-10T08:56:21.677Z,36.43
2023-05-10T08:57:21.707Z,36.40
2023-05-10T08:58:21.681Z,36.35
2023-05-10T08:59:21.689Z,36.39
2023-05-10T09:00:21.742Z,36.36
2023-05-10T09:01:21.809Z,36.35
2023-05-10T09:02:21.864Z,36.31
2023-05-10T09:03:21.967Z,36.28
2023-05-10T09:04:22.107Z,36.31
2023-05-10T09:05:22.179Z,36.32
2023-05-10T09:06:21.941Z,36.24
2023-05-10T09:07:22.085Z,36.22
2023-05-10T09:08:22.006Z,36.19
2023-05-10T09:09:22.070Z,36.22
2023-05-10T09:10:22.076Z,36.23
2023-05-10T09:11:22.089Z,36.27
2023-05-10T09:12:22.132Z,36.25
2023-05-10T09:13:22.254Z,36.26
2023-05-10T09:14:24.147Z,36.18
2023-05-10T09:15:22.261Z,36.18
2023-05-10T09:16:22.722Z,36.14
2023-05-10T09:17:22.501Z,36.08
2023-05-10T09:18:22.445Z,36.04
2023-05-10T09:19:22.392Z,36.06
2023-05-10T09:20:22.399Z,36.03
2023-05-10T09:21:22.479Z,36.06
2023-05-10T09:22:22.466Z,36.02
2023-05-10T09:23:22.544Z,35.92
2023-05-10T09:24:22.552Z,35.96
2023-05-10T09:25:22.635Z,35.92
2023-05-10T09:26:22.668Z,35.94
2023-05-10T09:27:22.685Z,35.88
2023-05-10T09:28:22.776Z,35.89
2023-05-10T09:29:22.787Z,35.90
2023-05-10T09:30:22.796Z,35.87
2023-05-10T09:31:23.368Z,35.87
2023-05-10T09:32:22.880Z,35.87
2023-05-10T09:33:22.946Z,35.93
2023-05-10T09:34:22.957Z,36.23
2023-05-10T09:35:22.999Z,36.51
2023-05-10T09:36:23.061Z,39.01
2023-05-10T09:37:23.116Z,37.03
2023-05-10T09:38:23.158Z,37.41
2023-05-10T09:39:23.187Z,37.57
2023-05-10T09:40:23.181Z,37.66
2023-05-10T09:41:23.566Z,37.99
2023-05-10T09:42:23.272Z,37.96
2023-05-10T09:43:23.238Z,38.69
2023-05-10T09:44:23.204Z,38.28
2023-05-10T09:45:23.193Z,38.53
2023-05-10T09:46:23.265Z,40.13
2023-05-10T09:47:23.318Z,39.38
2023-05-10T09:48:23.405Z,39.90
2023-05-10T09:49:23.396Z,40.08
2023-05-10T09:50:23.459Z,40.00
2023-05-10T09:51:23.577Z,40.48
2023-05-10T09:52:23.461Z,40.17
2023-05-10T09:53:23.530Z,40.77
2023-05-10T09:54:23.491Z,41.97
2023-05-10T09:55:23.478Z,41.63
2023-05-10T09:56:23.556Z,40.30
2023-05-10T09:57:23.528Z,41.59
2023-05-10T09:58:23.532Z,41.05
2023-05-10T09:59:24.093Z,41.38
2023-05-10T10:00:23.603Z,40.54
2023-05-10T10:01:23.661Z,40.53
2023-05-10T10:02:23.655Z,41.17
2023-05-10T10:03:23.728Z,40.24
2023-05-10T10:04:23.805Z,41.16
2023-05-10T10:05:23.837Z,41.39
2023-05-10T10:06:30.247Z,41.08
2023-05-10T10:07:24.915Z,41.48
2023-05-10T10:08:23.885Z,41.25
2023-05-10T10:09:23.906Z,41.46
2023-05-10T10:10:23.873Z,40.86
2023-05-10T10:11:24.067Z,41.25
2023-05-10T10:12:23.837Z,41.42
2023-05-10T10:13:23.834Z,41.03
2023-05-10T10:14:23.820Z,40.75
2023-05-10T10:15:23.854Z,40.72
2023-05-10T10:16:24.165Z,40.90
2023-05-10T10:17:23.875Z,40.93
2023-05-10T10:18:23.794Z,40.70
2023-05-10T10:19:23.842Z,40.68
2023-05-10T10:20:23.854Z,40.82
2023-05-10T10:21:23.897Z,41.37
2023-05-10T10:22:23.913Z,40.78
2023-05-10T10:23:23.970Z,40.90
2023-05-10T10:24:23.955Z,40.82
2023-05-10T10:25:23.990Z,41.08
2023-05-10T10:26:24.061Z,41.37
2023-05-10T10:27:24.053Z,40.88
2023-05-10T10:28:25.400Z,40.65
2023-05-10T10:29:24.065Z,40.84
2023-05-10T10:30:24.061Z,40.58
2023-05-10T10:31:24.135Z,41.01
2023-05-10T10:32:24.103Z,39.20
2023-05-10T10:33:28.472Z,39.99
2023-05-10T10:34:25.016Z,39.53
2023-05-10T10:35:24.083Z,38.83
2023-05-10T10:36:24.098Z,37.37
2023-05-10T10:37:24.063Z,36.23
2023-05-10T10:38:24.006Z,35.94
2023-05-10T10:39:23.998Z,35.95
2023-05-10T10:40:23.946Z,35.77
2023-05-10T10:41:24.103Z,35.52
2023-05-10T10:42:23.998Z,35.62
2023-05-10T10:43:23.982Z,35.99
2023-05-10T10:44:23.968Z,36.13
2023-05-10T10:45:23.941Z,36.25
2023-05-10T10:46:24.178Z,36.28
2023-05-10T10:47:24.154Z,36.25
2023-05-10T10:48:23.960Z,36.23
2023-05-10T10:49:24.062Z,36.09
2023-05-10T10:50:23.963Z,35.98
2023-05-10T10:51:23.954Z,35.94
2023-05-10T10:52:23.950Z,35.95
2023-05-10T10:53:23.930Z,35.82
2023-05-10T10:54:23.949Z,35.80
2023-05-10T10:55:23.975Z,35.86
2023-05-10T10:56:23.958Z,35.90
2023-05-10T10:57:24.131Z,35.98
2023-05-10T10:58:24.017Z,35.94
2023-05-10T10:59:24.058Z,35.93
2023-05-10T11:00:24.095Z,35.75
2023-05-10T11:01:24.113Z,35.71
2023-05-10T11:02:24.160Z,35.78
2023-05-10T11:03:24.116Z,35.69
2023-05-10T11:04:24.217Z,35.70
2023-05-10T11:05:24.190Z,35.75
2023-05-10T11:06:24.195Z,35.70
2023-05-10T11:07:24.606Z,35.82
2023-05-10T11:08:24.276Z,35.84
2023-05-10T11:09:24.290Z,35.89
2023-05-10T11:10:24.287Z,35.77
2023-05-10T11:11:24.296Z,35.32
2023-05-10T11:12:24.333Z,35.22
2023-05-10T11:13:24.376Z,35.35
2023-05-10T11:14:24.390Z,35.11
2023-05-10T11:15:24.474Z,35.06
2023-05-10T11:16:24.887Z,35.06
2023-05-10T11:17:24.586Z,35.08
2023-05-10T11:18:24.718Z,35.12
2023-05-10T11:19:24.547Z,35.40
2023-05-10T11:20:24.580Z,35.45
2023-05-10T11:21:24.583Z,35.72
2023-05-10T11:22:24.622Z,35.64
2023-05-10T11:23:24.743Z,35.40
2023-05-10T11:24:24.726Z,35.49
2023-05-10T11:25:24.740Z,35.84
2023-05-10T11:26:24.849Z,35.68
2023-05-10T11:27:25.115Z,36.48
2023-05-10T11:28:24.916Z,36.58
2023-05-10T11:29:25.281Z,36.79
2023-05-10T11:30:25.164Z,37.07
2023-05-10T11:31:25.187Z,37.24
2023-05-10T11:32:25.184Z,37.22
2023-05-10T11:33:25.131Z,37.20
2023-05-10T11:34:25.151Z,37.13
2023-05-10T11:35:25.189Z,37.18
2023-05-10T11:36:25.203Z,37.13
2023-05-10T11:37:25.611Z,36.97
2023-05-10T11:38:25.247Z,36.80
2023-05-10T11:39:25.209Z,36.58
2023-05-10T11:40:25.242Z,36.51
2023-05-10T11:41:25.274Z,36.56
2023-05-10T11:42:25.621Z,36.58
2023-05-10T11:43:25.311Z,36.54
2023-05-10T11:44:25.314Z,36.53
2023-05-10T11:45:25.381Z,36.48
2023-05-10T11:46:25.449Z,36.48
2023-05-10T11:47:25.433Z,36.48
2023-05-10T11:48:25.392Z,36.44
2023-05-10T11:49:25.383Z,36.44
2023-05-10T11:50:25.401Z,36.26
2023-05-10T11:51:25.410Z,36.22
2023-05-10T11:52:25.411Z,36.23
2023-05-10T11:53:25.918Z,36.05
2023-05-10T11:54:25.445Z,36.09
2023-05-10T11:55:25.406Z,36.06
2023-05-10T11:56:25.430Z,36.06
2023-05-10T11:57:25.457Z,35.87
2023-05-10T11:58:25.449Z,35.75
2023-05-10T11:59:25.473Z,35.56
2023-05-10T12:00:25.542Z,35.47
2023-05-10T12:01:25.499Z,35.36
2023-05-10T12:02:25.612Z,35.42
2023-05-10T12:03:25.627Z,35.27
2023-05-10T12:04:25.539Z,35.14
2023-05-10T12:05:25.571Z,35.23
2023-05-10T12:06:25.555Z,35.23
2023-05-10T12:07:25.621Z,35.13
2023-05-10T12:08:25.623Z,35.26
2023-05-10T12:09:39.564Z,35.43
2023-05-10T12:10:26.579Z,35.73
2023-05-10T12:11:25.596Z,35.84
2023-05-10T12:12:25.610Z,35.88
2023-05-10T12:13:25.583Z,36.01
2023-05-10T12:14:25.586Z,36.04
2023-05-10T12:15:25.589Z,36.10
2023-05-10T12:16:25.594Z,36.80
2023-05-10T12:17:25.595Z,38.41
2023-05-10T12:18:25.564Z,37.08
2023-05-10T12:19:25.568Z,38.07
2023-05-10T12:20:25.518Z,38.68
2023-05-10T12:21:25.552Z,38.89
2023-05-10T12:22:25.537Z,39.11
2023-05-10T12:23:25.525Z,40.12
2023-05-10T12:24:25.528Z,39.96
2023-05-10T12:25:25.492Z,39.86
2023-05-10T12:26:25.551Z,39.93
2023-05-10T12:27:25.489Z,40.21
2023-05-10T12:28:25.476Z,40.25
2023-05-10T12:29:25.481Z,40.35
2023-05-10T12:30:25.480Z,40.26
2023-05-10T12:31:25.479Z,40.26
2023-05-10T12:32:25.499Z,40.06
2023-05-10T12:33:25.496Z,40.10
2023-05-10T12:34:25.540Z,40.04
2023-05-10T12:35:25.557Z,39.77
2023-05-10T12:36:25.621Z,39.48
2023-05-10T12:37:25.693Z,39.48
2023-05-10T12:38:25.686Z,39.22
2023-05-10T12:39:25.791Z,39.20
2023-05-10T12:40:25.797Z,39.06
2023-05-10T12:41:25.917Z,39.05
2023-05-10T12:42:25.931Z,38.97
2023-05-10T12:43:26.037Z,38.97
2023-05-10T12:44:26.066Z,38.93
2023-05-10T12:45:26.100Z,38.87
2023-05-10T12:46:26.320Z,38.83
2023-05-10T12:47:26.261Z,38.79
2023-05-10T12:48:26.330Z,38.82
2023-05-10T12:49:27.149Z,38.74
2023-05-10T12:50:26.444Z,38.70
2023-05-10T12:51:26.505Z,38.66
2023-05-10T12:52:26.543Z,38.66
2023-05-10T12:53:26.662Z,38.66
2023-05-10T12:54:26.660Z,38.65